sensor_id;sensor_type;location;lat;lon;timestamp;temperature;humidity
54576;DHT22;40472;53.486;14.542;2023-03-14T00:02:04;10.50;99.90
54576;DHT22;40472;53.486;14.542;2023-03-14T00:04:30;10.40;99.90
54576;DHT22;40472;53.486;14.542;2023-03-14T00:06:56;10.30;99.90
54576;DHT22;40472;53.486;14.542;2023-03-14T00:09:21;10.30;99.90
54576;DHT22;40472;53.486;14.542;2023-03-14T00:11:48;10.20;99.90
54576;DHT22;40472;53.486;14.542;2023-03-14T00:14:13;10.20;99.90
54576;DHT22;40472;53.486;14.542;2023-03-14T00:16:41;10.20;99.90
54576;DHT22;40472;53.486;14.542;2023-03-14T00:19:06;10.10;99.90
54576;DHT22;40472;53.486;14.542;2023-03-14T00:21:32;10.10;99.90
54576;DHT22;40472;53.486;14.542;2023-03-14T00:23:58;10.10;99.90
54576;DHT22;40472;53.486;14.542;2023-03-14T00:26:24;10.00;99.90
54576;DHT22;40472;53.486;14.542;2023-03-14T00:28:53;10.00;99.90
54576;DHT22;40472;53.486;14.542;2023-03-14T00:31:20;10.00;99.90
54576;DHT22;40472;53.486;14.542;2023-03-14T00:33:46;10.00;99.90
54576;DHT22;40472;53.486;14.542;2023-03-14T00:36:14;9.90;99.90
54576;DHT22;40472;53.486;14.542;2023-03-14T00:38:42;9.90;99.90
54576;DHT22;40472;53.486;14.542;2023-03-14T00:41:10;9.80;99.90
54576;DHT22;40472;53.486;14.542;2023-03-14T00:43:36;9.70;99.90
54576;DHT22;40472;53.486;14.542;2023-03-14T00:46:05;9.50;99.90
54576;DHT22;40472;53.486;14.542;2023-03-14T00:48:31;9.30;99.90
54576;DHT22;40472;53.486;14.542;2023-03-14T00:50:57;9.20;99.90
54576;DHT22;40472;53.486;14.542;2023-03-14T00:53:23;9.10;99.90
54576;DHT22;40472;53.486;14.542;2023-03-14T00:55:49;9.20;99.90
54576;DHT22;40472;53.486;14.542;2023-03-14T00:58:17;9.30;99.90
54576;DHT22;40472;53.486;14.542;2023-03-14T01:00:44;9.30;99.90
54576;DHT22;40472;53.486;14.542;2023-03-14T01:03:11;9.30;99.90
54576;DHT22;40472;53.486;14.542;2023-03-14T01:05:37;9.30;99.90
54576;DHT22;40472;53.486;14.542;2023-03-14T01:08:04;9.30;99.90
54576;DHT22;40472;53.486;14.542;2023-03-14T01:10:30;9.20;99.90
54576;DHT22;40472;53.486;14.542;2023-03-14T01:12:56;9.00;99.90
54576;DHT22;40472;53.486;14.542;2023-03-14T01:15:22;9.00;99.90
54576;DHT22;40472;53.486;14.542;2023-03-14T01:17:48;9.10;99.90
54576;DHT22;40472;53.486;14.542;2023-03-14T01:20:16;9.10;99.90
54576;DHT22;40472;53.486;14.542;2023-03-14T01:22:45;9.10;99.90
54576;DHT22;40472;53.486;14.542;2023-03-14T01:25:15;9.20;99.90
54576;DHT22;40472;53.486;14.542;2023-03-14T01:27:41;9.20;99.90
54576;DHT22;40472;53.486;14.542;2023-03-14T01:30:08;9.10;99.90
54576;DHT22;40472;53.486;14.542;2023-03-14T01:32:35;9.20;99.90
54576;DHT22;40472;53.486;14.542;2023-03-14T01:35:01;9.10;99.90
54576;DHT22;40472;53.486;14.542;2023-03-14T01:37:26;9.00;99.90
54576;DHT22;40472;53.486;14.542;2023-03-14T01:39:52;9.10;99.90
54576;DHT22;40472;53.486;14.542;2023-03-14T01:42:19;9.00;99.90
54576;DHT22;40472;53.486;14.542;2023-03-14T01:44:56;9.10;99.90
54576;DHT22;40472;53.486;14.542;2023-03-14T01:47:22;9.10;99.90
54576;DHT22;40472;53.486;14.542;2023-03-14T01:50:04;9.10;99.90
54576;DHT22;40472;53.486;14.542;2023-03-14T01:52:36;9.20;99.90
54576;DHT22;40472;53.486;14.542;2023-03-14T01:55:09;9.20;99.90
54576;DHT22;40472;53.486;14.542;2023-03-14T01:57:47;9.30;99.90
54576;DHT22;40472;53.486;14.542;2023-03-14T02:00:19;9.30;99.90
54576;DHT22;40472;53.486;14.542;2023-03-14T02:02:48;9.30;99.90
54576;DHT22;40472;53.486;14.542;2023-03-14T02:05:18;9.40;99.90
54576;DHT22;40472;53.486;14.542;2023-03-14T02:07:56;9.40;99.90
54576;DHT22;40472;53.486;14.542;2023-03-14T02:10:25;9.40;99.90
54576;DHT22;40472;53.486;14.542;2023-03-14T02:12:54;9.40;99.90
54576;DHT22;40472;53.486;14.542;2023-03-14T02:15:21;9.40;99.90
54576;DHT22;40472;53.486;14.542;2023-03-14T02:17:47;9.50;99.90
54576;DHT22;40472;53.486;14.542;2023-03-14T02:22:46;9.40;99.90
54576;DHT22;40472;53.486;14.542;2023-03-14T02:27:57;9.50;99.90
54576;DHT22;40472;53.486;14.542;2023-03-14T02:30:26;9.60;99.90
54576;DHT22;40472;53.486;14.542;2023-03-14T02:32:58;9.60;99.90
54576;DHT22;40472;53.486;14.542;2023-03-14T02:35:29;9.70;99.90
54576;DHT22;40472;53.486;14.542;2023-03-14T02:38:00;9.70;99.90
54576;DHT22;40472;53.486;14.542;2023-03-14T02:40:29;9.70;99.90
54576;DHT22;40472;53.486;14.542;2023-03-14T02:42:55;9.70;99.90
54576;DHT22;40472;53.486;14.542;2023-03-14T02:47:54;9.50;99.90
54576;DHT22;40472;53.486;14.542;2023-03-14T02:50:26;9.50;99.90
54576;DHT22;40472;53.486;14.542;2023-03-14T02:52:54;9.50;99.90
54576;DHT22;40472;53.486;14.542;2023-03-14T02:55:23;9.50;99.90
54576;DHT22;40472;53.486;14.542;2023-03-14T02:57:50;9.40;99.90
54576;DHT22;40472;53.486;14.542;2023-03-14T03:00:16;9.40;99.90
54576;DHT22;40472;53.486;14.542;2023-03-14T03:02:42;9.40;99.90
54576;DHT22;40472;53.486;14.542;2023-03-14T03:05:08;9.40;99.90
54576;DHT22;40472;53.486;14.542;2023-03-14T03:07:34;9.50;99.90
54576;DHT22;40472;53.486;14.542;2023-03-14T03:09:59;9.50;99.90
54576;DHT22;40472;53.486;14.542;2023-03-14T03:12:25;9.50;99.90
54576;DHT22;40472;53.486;14.542;2023-03-14T03:14:51;9.50;99.90
54576;DHT22;40472;53.486;14.542;2023-03-14T03:17:17;9.40;99.90
54576;DHT22;40472;53.486;14.542;2023-03-14T03:19:43;9.40;99.90
54576;DHT22;40472;53.486;14.542;2023-03-14T03:22:09;9.40;99.90
54576;DHT22;40472;53.486;14.542;2023-03-14T03:24:35;9.40;99.90
54576;DHT22;40472;53.486;14.542;2023-03-14T03:27:00;9.40;99.90
54576;DHT22;40472;53.486;14.542;2023-03-14T03:29:26;9.30;99.90
54576;DHT22;40472;53.486;14.542;2023-03-14T03:31:53;9.30;99.90
54576;DHT22;40472;53.486;14.542;2023-03-14T03:34:19;9.30;99.90
54576;DHT22;40472;53.486;14.542;2023-03-14T03:36:45;9.30;99.90
54576;DHT22;40472;53.486;14.542;2023-03-14T03:39:10;9.30;99.90
54576;DHT22;40472;53.486;14.542;2023-03-14T03:41:36;9.30;99.90
54576;DHT22;40472;53.486;14.542;2023-03-14T03:44:02;9.30;99.90
54576;DHT22;40472;53.486;14.542;2023-03-14T03:46:27;9.30;99.90
54576;DHT22;40472;53.486;14.542;2023-03-14T03:48:58;9.30;99.90
54576;DHT22;40472;53.486;14.542;2023-03-14T03:51:25;9.20;99.90
54576;DHT22;40472;53.486;14.542;2023-03-14T03:53:51;9.20;99.90
54576;DHT22;40472;53.486;14.542;2023-03-14T03:56:17;9.20;99.90
54576;DHT22;40472;53.486;14.542;2023-03-14T03:58:42;9.20;99.90
54576;DHT22;40472;53.486;14.542;2023-03-14T04:01:09;9.30;99.90
54576;DHT22;40472;53.486;14.542;2023-03-14T04:03:36;9.20;99.90
54576;DHT22;40472;53.486;14.542;2023-03-14T04:06:09;9.20;99.90
54576;DHT22;40472;53.486;14.542;2023-03-14T04:08:35;9.20;99.90
54576;DHT22;40472;53.486;14.542;2023-03-14T04:11:02;9.20;99.90
54576;DHT22;40472;53.486;14.542;2023-03-14T04:13:29;9.20;99.90
54576;DHT22;40472;53.486;14.542;2023-03-14T04:15:55;9.20;99.90
54576;DHT22;40472;53.486;14.542;2023-03-14T04:18:22;9.20;99.90
54576;DHT22;40472;53.486;14.542;2023-03-14T04:20:54;9.20;99.90
54576;DHT22;40472;53.486;14.542;2023-03-14T04:23:21;9.20;99.90
54576;DHT22;40472;53.486;14.542;2023-03-14T04:25:50;9.10;99.90
54576;DHT22;40472;53.486;14.542;2023-03-14T04:28:16;9.10;99.90
54576;DHT22;40472;53.486;14.542;2023-03-14T04:30:42;9.10;99.90
54576;DHT22;40472;53.486;14.542;2023-03-14T04:33:07;9.10;99.90
54576;DHT22;40472;53.486;14.542;2023-03-14T04:35:34;9.10;99.90
54576;DHT22;40472;53.486;14.542;2023-03-14T04:38:00;9.20;99.90
54576;DHT22;40472;53.486;14.542;2023-03-14T04:40:26;9.20;99.90
54576;DHT22;40472;53.486;14.542;2023-03-14T04:42:52;9.30;99.90
54576;DHT22;40472;53.486;14.542;2023-03-14T04:45:18;9.30;99.90
54576;DHT22;40472;53.486;14.542;2023-03-14T04:47:43;9.30;99.90
54576;DHT22;40472;53.486;14.542;2023-03-14T04:50:10;9.30;99.90
54576;DHT22;40472;53.486;14.542;2023-03-14T04:52:36;9.20;99.90
54576;DHT22;40472;53.486;14.542;2023-03-14T04:55:02;9.30;99.90
54576;DHT22;40472;53.486;14.542;2023-03-14T04:57:27;9.20;99.90
54576;DHT22;40472;53.486;14.542;2023-03-14T04:59:53;9.20;99.90
54576;DHT22;40472;53.486;14.542;2023-03-14T05:02:19;9.20;99.90
54576;DHT22;40472;53.486;14.542;2023-03-14T05:04:45;9.20;99.90
54576;DHT22;40472;53.486;14.542;2023-03-14T05:07:10;9.20;99.90
54576;DHT22;40472;53.486;14.542;2023-03-14T05:09:36;9.10;99.90
54576;DHT22;40472;53.486;14.542;2023-03-14T05:12:02;9.10;99.90
54576;DHT22;40472;53.486;14.542;2023-03-14T05:14:28;9.10;99.90
54576;DHT22;40472;53.486;14.542;2023-03-14T05:16:54;9.10;99.90
54576;DHT22;40472;53.486;14.542;2023-03-14T05:19:19;9.10;99.90
54576;DHT22;40472;53.486;14.542;2023-03-14T05:21:45;9.10;99.90
54576;DHT22;40472;53.486;14.542;2023-03-14T05:24:11;9.10;99.90
54576;DHT22;40472;53.486;14.542;2023-03-14T05:26:37;9.00;99.90
54576;DHT22;40472;53.486;14.542;2023-03-14T05:29:02;9.00;99.90
54576;DHT22;40472;53.486;14.542;2023-03-14T05:31:28;9.00;99.90
54576;DHT22;40472;53.486;14.542;2023-03-14T05:33:54;9.00;99.90
54576;DHT22;40472;53.486;14.542;2023-03-14T05:36:19;8.90;99.90
54576;DHT22;40472;53.486;14.542;2023-03-14T05:38:45;9.00;99.90
54576;DHT22;40472;53.486;14.542;2023-03-14T05:41:11;8.90;99.90
54576;DHT22;40472;53.486;14.542;2023-03-14T05:43:37;8.90;99.90
54576;DHT22;40472;53.486;14.542;2023-03-14T05:46:03;8.80;99.90
54576;DHT22;40472;53.486;14.542;2023-03-14T05:48:29;8.80;99.90
54576;DHT22;40472;53.486;14.542;2023-03-14T05:50:58;8.80;99.90
54576;DHT22;40472;53.486;14.542;2023-03-14T05:53:25;8.80;99.90
54576;DHT22;40472;53.486;14.542;2023-03-14T05:55:54;8.70;99.90
54576;DHT22;40472;53.486;14.542;2023-03-14T05:58:20;8.70;99.90
54576;DHT22;40472;53.486;14.542;2023-03-14T06:00:46;8.70;99.90
54576;DHT22;40472;53.486;14.542;2023-03-14T06:03:12;8.70;99.90
54576;DHT22;40472;53.486;14.542;2023-03-14T06:05:38;8.70;99.90
54576;DHT22;40472;53.486;14.542;2023-03-14T06:08:04;8.80;99.90
54576;DHT22;40472;53.486;14.542;2023-03-14T06:10:30;8.80;99.90
54576;DHT22;40472;53.486;14.542;2023-03-14T06:12:56;8.80;99.90
54576;DHT22;40472;53.486;14.542;2023-03-14T06:15:22;8.80;99.90
54576;DHT22;40472;53.486;14.542;2023-03-14T06:17:48;8.80;99.90
54576;DHT22;40472;53.486;14.542;2023-03-14T06:20:13;8.80;99.90
54576;DHT22;40472;53.486;14.542;2023-03-14T06:22:39;8.90;99.90
54576;DHT22;40472;53.486;14.542;2023-03-14T06:25:06;8.80;99.90
54576;DHT22;40472;53.486;14.542;2023-03-14T06:27:33;8.80;99.90
54576;DHT22;40472;53.486;14.542;2023-03-14T06:29:58;8.90;99.90
54576;DHT22;40472;53.486;14.542;2023-03-14T06:32:24;9.00;99.90
54576;DHT22;40472;53.486;14.542;2023-03-14T06:34:50;9.00;99.90
54576;DHT22;40472;53.486;14.542;2023-03-14T06:37:16;9.10;99.90
54576;DHT22;40472;53.486;14.542;2023-03-14T06:39:41;9.10;99.90
54576;DHT22;40472;53.486;14.542;2023-03-14T06:42:09;9.20;99.90
54576;DHT22;40472;53.486;14.542;2023-03-14T06:44:35;9.20;99.90
54576;DHT22;40472;53.486;14.542;2023-03-14T06:47:01;9.20;99.90
54576;DHT22;40472;53.486;14.542;2023-03-14T06:49:27;9.30;99.90
54576;DHT22;40472;53.486;14.542;2023-03-14T06:51:53;9.30;99.90
54576;DHT22;40472;53.486;14.542;2023-03-14T06:54:18;9.30;99.90
54576;DHT22;40472;53.486;14.542;2023-03-14T06:56:44;9.30;99.90
54576;DHT22;40472;53.486;14.542;2023-03-14T06:59:10;9.40;99.90
54576;DHT22;40472;53.486;14.542;2023-03-14T07:01:36;9.40;99.90
54576;DHT22;40472;53.486;14.542;2023-03-14T07:04:02;9.40;99.90
54576;DHT22;40472;53.486;14.542;2023-03-14T07:06:28;9.50;99.90
54576;DHT22;40472;53.486;14.542;2023-03-14T07:08:55;9.50;99.90
54576;DHT22;40472;53.486;14.542;2023-03-14T07:11:21;9.60;99.90
54576;DHT22;40472;53.486;14.542;2023-03-14T07:13:47;9.60;99.90
54576;DHT22;40472;53.486;14.542;2023-03-14T07:16:13;9.60;99.90
54576;DHT22;40472;53.486;14.542;2023-03-14T07:18:39;9.70;99.90
54576;DHT22;40472;53.486;14.542;2023-03-14T07:21:06;9.70;99.90
54576;DHT22;40472;53.486;14.542;2023-03-14T07:23:31;9.80;99.90
54576;DHT22;40472;53.486;14.542;2023-03-14T07:25:57;9.80;99.90
54576;DHT22;40472;53.486;14.542;2023-03-14T07:28:23;9.80;99.90
54576;DHT22;40472;53.486;14.542;2023-03-14T07:30:49;9.90;99.90
54576;DHT22;40472;53.486;14.542;2023-03-14T07:33:15;9.90;99.90
54576;DHT22;40472;53.486;14.542;2023-03-14T07:35:41;10.00;99.90
54576;DHT22;40472;53.486;14.542;2023-03-14T07:38:06;10.00;99.90
54576;DHT22;40472;53.486;14.542;2023-03-14T07:40:32;10.00;99.90
54576;DHT22;40472;53.486;14.542;2023-03-14T07:42:58;10.00;99.90
54576;DHT22;40472;53.486;14.542;2023-03-14T07:45:23;10.00;99.90
54576;DHT22;40472;53.486;14.542;2023-03-14T07:47:49;10.00;99.90
54576;DHT22;40472;53.486;14.542;2023-03-14T07:50:15;10.00;99.90
54576;DHT22;40472;53.486;14.542;2023-03-14T07:52:41;10.10;99.90
54576;DHT22;40472;53.486;14.542;2023-03-14T07:55:07;10.20;99.90
54576;DHT22;40472;53.486;14.542;2023-03-14T07:57:33;10.30;99.90
54576;DHT22;40472;53.486;14.542;2023-03-14T07:59:59;10.30;99.90
54576;DHT22;40472;53.486;14.542;2023-03-14T08:02:25;10.20;99.90
54576;DHT22;40472;53.486;14.542;2023-03-14T08:04:51;10.20;99.90
54576;DHT22;40472;53.486;14.542;2023-03-14T08:07:17;10.30;99.90
54576;DHT22;40472;53.486;14.542;2023-03-14T08:09:42;10.40;99.90
54576;DHT22;40472;53.486;14.542;2023-03-14T08:12:08;10.50;99.90
54576;DHT22;40472;53.486;14.542;2023-03-14T08:14:34;10.60;99.90
54576;DHT22;40472;53.486;14.542;2023-03-14T08:16:59;10.60;99.90
54576;DHT22;40472;53.486;14.542;2023-03-14T08:19:25;10.60;99.90
54576;DHT22;40472;53.486;14.542;2023-03-14T08:21:51;10.70;99.90
54576;DHT22;40472;53.486;14.542;2023-03-14T08:24:17;10.70;99.90
54576;DHT22;40472;53.486;14.542;2023-03-14T08:26:43;10.70;99.90
54576;DHT22;40472;53.486;14.542;2023-03-14T08:29:08;10.80;99.90
54576;DHT22;40472;53.486;14.542;2023-03-14T08:31:37;10.90;99.90
54576;DHT22;40472;53.486;14.542;2023-03-14T08:34:03;10.90;99.90
54576;DHT22;40472;53.486;14.542;2023-03-14T08:36:29;11.00;99.90
54576;DHT22;40472;53.486;14.542;2023-03-14T08:38:55;11.00;99.90
54576;DHT22;40472;53.486;14.542;2023-03-14T08:41:20;11.00;99.90
54576;DHT22;40472;53.486;14.542;2023-03-14T08:43:46;11.00;99.90
54576;DHT22;40472;53.486;14.542;2023-03-14T08:46:12;11.00;99.90
54576;DHT22;40472;53.486;14.542;2023-03-14T08:48:37;11.10;99.90
54576;DHT22;40472;53.486;14.542;2023-03-14T08:51:08;11.20;99.90
54576;DHT22;40472;53.486;14.542;2023-03-14T08:53:36;11.30;99.90
54576;DHT22;40472;53.486;14.542;2023-03-14T08:56:02;11.30;99.90
54576;DHT22;40472;53.486;14.542;2023-03-14T08:58:29;11.40;99.90
54576;DHT22;40472;53.486;14.542;2023-03-14T09:00:55;11.50;99.90
54576;DHT22;40472;53.486;14.542;2023-03-14T09:03:20;11.60;99.90
54576;DHT22;40472;53.486;14.542;2023-03-14T09:05:49;11.70;99.90
54576;DHT22;40472;53.486;14.542;2023-03-14T09:08:15;11.80;99.90
54576;DHT22;40472;53.486;14.542;2023-03-14T09:10:40;11.90;99.90
54576;DHT22;40472;53.486;14.542;2023-03-14T09:13:06;11.90;99.90
54576;DHT22;40472;53.486;14.542;2023-03-14T09:15:32;12.00;99.90
54576;DHT22;40472;53.486;14.542;2023-03-14T09:17:58;12.00;99.90
54576;DHT22;40472;53.486;14.542;2023-03-14T09:20:24;12.10;99.90
54576;DHT22;40472;53.486;14.542;2023-03-14T09:22:50;12.30;99.90
54576;DHT22;40472;53.486;14.542;2023-03-14T09:25:16;12.30;99.90
54576;DHT22;40472;53.486;14.542;2023-03-14T09:27:42;12.50;99.90
54576;DHT22;40472;53.486;14.542;2023-03-14T09:30:26;12.50;99.90
54576;DHT22;40472;53.486;14.542;2023-03-14T09:32:52;12.60;99.90
54576;DHT22;40472;53.486;14.542;2023-03-14T09:35:18;12.50;99.90
54576;DHT22;40472;53.486;14.542;2023-03-14T09:37:44;12.50;99.90
54576;DHT22;40472;53.486;14.542;2023-03-14T09:40:13;12.50;99.90
54576;DHT22;40472;53.486;14.542;2023-03-14T09:42:41;12.60;99.90
54576;DHT22;40472;53.486;14.542;2023-03-14T09:45:31;12.80;99.90
54576;DHT22;40472;53.486;14.542;2023-03-14T09:48:03;12.80;99.90
54576;DHT22;40472;53.486;14.542;2023-03-14T09:50:41;12.90;99.90
54576;DHT22;40472;53.486;14.542;2023-03-14T09:53:20;13.00;99.90
54576;DHT22;40472;53.486;14.542;2023-03-14T09:55:49;13.00;99.90
54576;DHT22;40472;53.486;14.542;2023-03-14T09:58:23;13.10;99.90
54576;DHT22;40472;53.486;14.542;2023-03-14T10:00:52;13.20;99.90
54576;DHT22;40472;53.486;14.542;2023-03-14T10:05:50;12.90;99.90
54576;DHT22;40472;53.486;14.542;2023-03-14T10:08:16;12.80;99.90
54576;DHT22;40472;53.486;14.542;2023-03-14T10:10:42;12.70;99.90
54576;DHT22;40472;53.486;14.542;2023-03-14T10:13:20;12.70;99.90
54576;DHT22;40472;53.486;14.542;2023-03-14T10:18:22;13.00;99.90
54576;DHT22;40472;53.486;14.542;2023-03-14T10:20:49;13.10;99.90
54576;DHT22;40472;53.486;14.542;2023-03-14T10:25:46;13.10;99.90
54576;DHT22;40472;53.486;14.542;2023-03-14T10:28:29;13.20;99.90
54576;DHT22;40472;53.486;14.542;2023-03-14T10:30:57;13.30;99.90
54576;DHT22;40472;53.486;14.542;2023-03-14T10:33:26;13.20;99.90
54576;DHT22;40472;53.486;14.542;2023-03-14T10:36:03;13.30;99.90
54576;DHT22;40472;53.486;14.542;2023-03-14T10:38:31;13.40;99.90
54576;DHT22;40472;53.486;14.542;2023-03-14T10:40:57;13.50;99.90
54576;DHT22;40472;53.486;14.542;2023-03-14T10:43:35;13.60;99.90
54576;DHT22;40472;53.486;14.542;2023-03-14T10:46:15;13.60;99.90
54576;DHT22;40472;53.486;14.542;2023-03-14T10:48:43;13.80;99.90
54576;DHT22;40472;53.486;14.542;2023-03-14T10:53:49;13.60;99.90
54576;DHT22;40472;53.486;14.542;2023-03-14T10:56:20;13.50;99.90
54576;DHT22;40472;53.486;14.542;2023-03-14T10:58:49;13.40;99.90
54576;DHT22;40472;53.486;14.542;2023-03-14T11:06:59;13.30;99.90
54576;DHT22;40472;53.486;14.542;2023-03-14T11:15:23;13.20;99.90
54576;DHT22;40472;53.486;14.542;2023-03-14T11:23:23;13.20;99.90
54576;DHT22;40472;53.486;14.542;2023-03-14T11:30:54;13.50;99.90
54576;DHT22;40472;53.486;14.542;2023-03-14T11:33:38;13.60;99.90
54576;DHT22;40472;53.486;14.542;2023-03-14T11:36:08;13.50;99.90
54576;DHT22;40472;53.486;14.542;2023-03-14T11:38:42;13.40;99.90
54576;DHT22;40472;53.486;14.542;2023-03-14T11:43:54;13.30;99.90
54576;DHT22;40472;53.486;14.542;2023-03-14T11:46:28;13.20;99.90
54576;DHT22;40472;53.486;14.542;2023-03-14T11:48:59;13.20;99.90
54576;DHT22;40472;53.486;14.542;2023-03-14T11:51:34;13.10;99.90
54576;DHT22;40472;53.486;14.542;2023-03-14T11:57:19;12.80;99.90
54576;DHT22;40472;53.486;14.542;2023-03-14T12:00:06;12.80;99.90
54576;DHT22;40472;53.486;14.542;2023-03-14T12:02:52;12.70;99.90
54576;DHT22;40472;53.486;14.542;2023-03-14T12:10:59;12.50;99.90
54576;DHT22;40472;53.486;14.542;2023-03-14T12:13:32;12.40;99.90
54576;DHT22;40472;53.486;14.542;2023-03-14T12:16:00;12.50;99.90
54576;DHT22;40472;53.486;14.542;2023-03-14T12:18:32;12.50;99.90
54576;DHT22;40472;53.486;14.542;2023-03-14T12:21:01;12.60;99.90
54576;DHT22;40472;53.486;14.542;2023-03-14T12:23:36;12.60;99.90
54576;DHT22;40472;53.486;14.542;2023-03-14T12:28:38;12.80;99.90
54576;DHT22;40472;53.486;14.542;2023-03-14T12:31:42;12.90;99.90
54576;DHT22;40472;53.486;14.542;2023-03-14T12:50:15;12.70;99.90
54576;DHT22;40472;53.486;14.542;2023-03-14T13:01:24;12.40;99.90
54576;DHT22;40472;53.486;14.542;2023-03-14T13:03:57;12.30;99.90
54576;DHT22;40472;53.486;14.542;2023-03-14T13:06:56;12.20;99.90
54576;DHT22;40472;53.486;14.542;2023-03-14T13:11:53;12.00;99.90
54576;DHT22;40472;53.486;14.542;2023-03-14T13:14:20;11.90;99.90
54576;DHT22;40472;53.486;14.542;2023-03-14T13:16:49;11.70;99.90
54576;DHT22;40472;53.486;14.542;2023-03-14T13:19:24;11.40;99.90
54576;DHT22;40472;53.486;14.542;2023-03-14T13:22:02;11.20;99.90
54576;DHT22;40472;53.486;14.542;2023-03-14T13:24:28;11.20;99.90
54576;DHT22;40472;53.486;14.542;2023-03-14T13:26:56;11.00;99.90
54576;DHT22;40472;53.486;14.542;2023-03-14T13:29:28;11.00;99.90
54576;DHT22;40472;53.486;14.542;2023-03-14T13:32:02;10.90;99.90
54576;DHT22;40472;53.486;14.542;2023-03-14T13:34:40;10.90;99.90
54576;DHT22;40472;53.486;14.542;2023-03-14T13:37:17;10.90;99.90
54576;DHT22;40472;53.486;14.542;2023-03-14T13:39:49;10.80;99.90
54576;DHT22;40472;53.486;14.542;2023-03-14T13:42:19;10.80;99.90
54576;DHT22;40472;53.486;14.542;2023-03-14T13:44:45;10.90;99.90
54576;DHT22;40472;53.486;14.542;2023-03-14T13:47:16;11.10;99.90
54576;DHT22;40472;53.486;14.542;2023-03-14T13:49:42;11.20;99.90
54576;DHT22;40472;53.486;14.542;2023-03-14T13:52:42;11.30;99.90
54576;DHT22;40472;53.486;14.542;2023-03-14T13:55:21;11.30;99.90
54576;DHT22;40472;53.486;14.542;2023-03-14T13:57:55;11.30;99.90
54576;DHT22;40472;53.486;14.542;2023-03-14T14:00:26;11.30;99.90
54576;DHT22;40472;53.486;14.542;2023-03-14T14:02:57;11.20;99.90
54576;DHT22;40472;53.486;14.542;2023-03-14T14:05:29;11.20;99.90
54576;DHT22;40472;53.486;14.542;2023-03-14T14:07:57;11.20;99.90
54576;DHT22;40472;53.486;14.542;2023-03-14T14:10:26;11.30;99.90
54576;DHT22;40472;53.486;14.542;2023-03-14T14:12:59;11.40;99.90
54576;DHT22;40472;53.486;14.542;2023-03-14T14:15:31;11.70;99.90
54576;DHT22;40472;53.486;14.542;2023-03-14T14:18:03;12.00;99.90
54576;DHT22;40472;53.486;14.542;2023-03-14T14:20:33;12.00;99.90
54576;DHT22;40472;53.486;14.542;2023-03-14T14:23:04;12.10;99.90
54576;DHT22;40472;53.486;14.542;2023-03-14T14:25:31;12.10;99.90
54576;DHT22;40472;53.486;14.542;2023-03-14T14:27:58;12.20;99.90
54576;DHT22;40472;53.486;14.542;2023-03-14T14:30:30;12.30;99.90
54576;DHT22;40472;53.486;14.542;2023-03-14T14:33:12;12.30;99.90
54576;DHT22;40472;53.486;14.542;2023-03-14T14:35:41;12.40;99.90
54576;DHT22;40472;53.486;14.542;2023-03-14T14:38:16;12.40;99.90
54576;DHT22;40472;53.486;14.542;2023-03-14T14:40:50;12.40;99.90
54576;DHT22;40472;53.486;14.542;2023-03-14T14:43:23;12.40;99.90
54576;DHT22;40472;53.486;14.542;2023-03-14T14:45:52;12.30;99.90
54576;DHT22;40472;53.486;14.542;2023-03-14T14:48:24;12.00;99.90
54576;DHT22;40472;53.486;14.542;2023-03-14T14:51:04;11.90;99.90
54576;DHT22;40472;53.486;14.542;2023-03-14T14:53:37;11.90;99.90
54576;DHT22;40472;53.486;14.542;2023-03-14T14:56:26;12.00;99.90
54576;DHT22;40472;53.486;14.542;2023-03-14T14:58:59;12.10;99.90
54576;DHT22;40472;53.486;14.542;2023-03-14T15:01:36;12.20;99.90
54576;DHT22;40472;53.486;14.542;2023-03-14T15:04:09;12.10;99.90
54576;DHT22;40472;53.486;14.542;2023-03-14T15:06:36;12.20;99.90
54576;DHT22;40472;53.486;14.542;2023-03-14T15:09:02;12.10;99.90
54576;DHT22;40472;53.486;14.542;2023-03-14T15:11:28;12.00;99.90
54576;DHT22;40472;53.486;14.542;2023-03-14T15:13:53;11.90;99.90
54576;DHT22;40472;53.486;14.542;2023-03-14T15:16:22;11.80;99.90
54576;DHT22;40472;53.486;14.542;2023-03-14T15:18:53;11.60;99.90
54576;DHT22;40472;53.486;14.542;2023-03-14T15:21:24;11.50;99.90
54576;DHT22;40472;53.486;14.542;2023-03-14T15:23:50;10.30;99.90
54576;DHT22;40472;53.486;14.542;2023-03-14T15:26:21;8.60;99.90
54576;DHT22;40472;53.486;14.542;2023-03-14T15:28:48;7.50;99.90
54576;DHT22;40472;53.486;14.542;2023-03-14T15:31:23;6.90;99.90
54576;DHT22;40472;53.486;14.542;2023-03-14T15:33:50;6.50;99.90
54576;DHT22;40472;53.486;14.542;2023-03-14T15:36:27;6.10;99.90
54576;DHT22;40472;53.486;14.542;2023-03-14T15:39:00;5.90;99.90
54576;DHT22;40472;53.486;14.542;2023-03-14T15:41:27;5.70;99.90
54576;DHT22;40472;53.486;14.542;2023-03-14T15:43:53;5.40;99.90
54576;DHT22;40472;53.486;14.542;2023-03-14T15:46:21;5.20;99.90
54576;DHT22;40472;53.486;14.542;2023-03-14T15:48:49;4.80;99.90
54576;DHT22;40472;53.486;14.542;2023-03-14T15:51:20;4.60;99.90
54576;DHT22;40472;53.486;14.542;2023-03-14T15:53:46;4.30;99.90
54576;DHT22;40472;53.486;14.542;2023-03-14T15:56:16;4.10;99.90
54576;DHT22;40472;53.486;14.542;2023-03-14T15:58:43;3.80;99.90
54576;DHT22;40472;53.486;14.542;2023-03-14T16:01:14;3.50;99.90
54576;DHT22;40472;53.486;14.542;2023-03-14T16:03:42;3.30;99.90
54576;DHT22;40472;53.486;14.542;2023-03-14T16:06:09;3.20;99.90
54576;DHT22;40472;53.486;14.542;2023-03-14T16:08:35;3.00;99.90
54576;DHT22;40472;53.486;14.542;2023-03-14T16:11:01;2.90;99.90
54576;DHT22;40472;53.486;14.542;2023-03-14T16:13:27;2.40;99.90
54576;DHT22;40472;53.486;14.542;2023-03-14T16:15:58;2.10;99.90
54576;DHT22;40472;53.486;14.542;2023-03-14T16:18:27;2.00;99.90
54576;DHT22;40472;53.486;14.542;2023-03-14T16:21:14;1.90;99.90
54576;DHT22;40472;53.486;14.542;2023-03-14T16:23:41;1.90;99.90
54576;DHT22;40472;53.486;14.542;2023-03-14T16:26:16;1.80;99.90
54576;DHT22;40472;53.486;14.542;2023-03-14T16:28:44;1.80;99.90
54576;DHT22;40472;53.486;14.542;2023-03-14T16:31:12;1.80;99.90
54576;DHT22;40472;53.486;14.542;2023-03-14T16:33:39;1.70;99.90
54576;DHT22;40472;53.486;14.542;2023-03-14T16:36:08;1.60;99.90
54576;DHT22;40472;53.486;14.542;2023-03-14T16:38:39;1.50;99.90
54576;DHT22;40472;53.486;14.542;2023-03-14T16:41:14;1.50;99.90
54576;DHT22;40472;53.486;14.542;2023-03-14T16:43:40;1.50;99.90
54576;DHT22;40472;53.486;14.542;2023-03-14T16:46:09;1.50;99.90
54576;DHT22;40472;53.486;14.542;2023-03-14T16:48:36;1.50;99.90
54576;DHT22;40472;53.486;14.542;2023-03-14T16:51:03;1.50;99.90
54576;DHT22;40472;53.486;14.542;2023-03-14T16:53:31;1.50;99.90
54576;DHT22;40472;53.486;14.542;2023-03-14T16:56:21;1.40;99.90